Time;durP1;ratioP1;P1;durP2;ratioP2;P2;SDS_P1;SDS_P2;PMS_P1;PMS_P2;Temp;Humidity;BMP_temperature;BMP_pressure;BME280_temperature;BME280_humidity;BME280_pressure;Samples;Min_cycle;Max_cycle;Signal;HPM_P1;HPM_P2
2024/02/15 00:02:18;;;;;;;;;;;22.50;38.20;;;;;;5072442;28;19925;-57
2024/02/15 00:04:45;;;;;;;;;;;22.50;38.20;;;;;;5072543;28;19936;-55
2024/02/15 00:07:12;;;;;;;;;;;22.50;38.10;;;;;;5072329;28;19929;-56
2024/02/15 00:09:39;;;;;;;;;;;22.50;38.10;;;;;;5072455;28;20309;-57
2024/02/15 00:12:06;;;;;;;;;;;22.50;38.10;;;;;;5072798;28;20340;-57
2024/02/15 00:14:33;;;;;;;;;;;22.50;38.10;;;;;;5071996;28;19983;-57
2024/02/15 00:17:00;;;;;;;;;;;22.50;38.00;;;;;;5072243;28;19936;-55
2024/02/15 00:19:29;;;;;;;;;;;22.50;38.00;;;;;;5072117;28;19972;-56
2024/02/15 00:21:57;;;;;;;;;;;22.50;38.00;;;;;;5072601;28;19925;-53
2024/02/15 00:24:24;;;;;;;;;;;22.50;38.00;;;;;;5072463;28;19928;-57
2024/02/15 00:26:51;;;;;;;;;;;22.50;38.10;;;;;;5073904;28;19982;-57
2024/02/15 00:29:18;;;;;;;;;;;22.40;38.00;;;;;;5076105;28;20301;-56
2024/02/15 00:31:45;;;;;;;;;;;22.40;38.00;;;;;;5075531;28;19931;-56
2024/02/15 00:34:12;;;;;;;;;;;22.40;38.00;;;;;;5075875;28;19974;-56
2024/02/15 00:36:42;;;;;;;;;;;22.40;38.00;;;;;;5076290;28;19931;-55
2024/02/15 00:39:09;;;;;;;;;;;22.40;38.10;;;;;;5075981;28;20348;-57
2024/02/15 00:41:36;;;;;;;;;;;22.40;38.00;;;;;;5074274;28;19970;-56
2024/02/15 00:44:03;;;;;;;;;;;22.40;38.10;;;;;;5075906;28;19931;-56
2024/02/15 00:46:30;;;;;;;;;;;22.40;38.10;;;;;;5075348;28;19971;-54
2024/02/15 00:48:57;;;;;;;;;;;22.40;38.10;;;;;;5075448;28;19925;-55
2024/02/15 00:51:25;;;;;;;;;;;22.40;38.10;;;;;;5075663;28;19963;-56
2024/02/15 00:53:52;;;;;;;;;;;22.40;38.10;;;;;;5075752;28;19971;-56
2024/02/15 00:56:19;;;;;;;;;;;22.40;38.10;;;;;;5075437;28;20293;-56
2024/02/15 00:58:46;;;;;;;;;;;22.40;38.10;;;;;;5075464;28;19931;-55
2024/02/15 01:01:12;;;;;;;;;;;22.40;38.10;;;;;;5075352;28;20019;-57
2024/02/15 01:03:39;;;;;;;;;;;22.40;38.10;;;;;;5075535;28;19928;-57
2024/02/15 01:06:06;;;;;;;;;;;22.40;38.10;;;;;;5074958;28;19924;-58
2024/02/15 01:08:34;;;;;;;;;;;22.40;38.00;;;;;;5075464;28;19931;-58
2024/02/15 01:11:01;;;;;;;;;;;22.40;38.00;;;;;;5075063;28;19932;-57
2024/02/15 01:13:28;;;;;;;;;;;22.40;38.00;;;;;;5075305;28;20297;-57
2024/02/15 01:15:55;;;;;;;;;;;22.40;38.00;;;;;;5073964;28;19926;-56
2024/02/15 01:18:22;;;;;;;;;;;22.50;37.90;;;;;;5074869;28;19924;-56
2024/02/15 01:20:49;;;;;;;;;;;22.40;37.80;;;;;;5075078;28;20009;-56
2024/02/15 01:23:16;;;;;;;;;;;22.40;37.80;;;;;;5074771;28;19925;-56
2024/02/15 01:25:43;;;;;;;;;;;22.40;37.80;;;;;;5074791;28;19931;-56
2024/02/15 01:28:11;;;;;;;;;;;22.50;38.40;;;;;;5074878;28;19932;-56
2024/02/15 01:30:37;;;;;;;;;;;22.40;37.80;;;;;;5074813;28;20023;-56
2024/02/15 01:33:05;;;;;;;;;;;22.40;37.80;;;;;;5074445;28;20015;-56
2024/02/15 01:35:32;;;;;;;;;;;22.40;37.80;;;;;;5074420;28;19935;-55
2024/02/15 01:37:59;;;;;;;;;;;22.40;37.80;;;;;;5074568;28;19924;-57
2024/02/15 01:40:26;;;;;;;;;;;22.40;37.80;;;;;;5074717;28;20019;-55
2024/02/15 01:42:53;;;;;;;;;;;22.40;37.80;;;;;;5074442;28;19994;-57
2024/02/15 01:45:21;;;;;;;;;;;22.40;37.80;;;;;;5074348;28;19931;-53
2024/02/15 01:47:49;;;;;;;;;;;22.40;37.80;;;;;;5074380;28;19931;-55
2024/02/15 01:50:17;;;;;;;;;;;22.40;38.30;;;;;;5074274;28;20382;-56
2024/02/15 01:52:47;;;;;;;;;;;22.40;37.80;;;;;;5074262;28;19924;-56
2024/02/15 01:55:17;;;;;;;;;;;22.40;37.80;;;;;;5074113;28;20019;-56
2024/02/15 01:57:44;;;;;;;;;;;22.40;37.80;;;;;;5073291;28;19951;-56
2024/02/15 02:00:12;;;;;;;;;;;22.40;37.80;;;;;;5073984;28;19925;-54
2024/02/15 02:02:41;;;;;;;;;;;22.40;37.80;;;;;;5074002;28;19974;-57
2024/02/15 02:05:08;;;;;;;;;;;22.40;37.80;;;;;;5074156;28;19925;-56
2024/02/15 02:07:35;;;;;;;;;;;22.40;37.80;;;;;;5073926;28;20385;-55
2024/02/15 02:10:02;;;;;;;;;;;22.40;37.80;;;;;;5073242;28;20019;-55
2024/02/15 02:12:30;;;;;;;;;;;22.40;37.80;;;;;;5073442;28;20364;-55
2024/02/15 02:14:57;;;;;;;;;;;22.40;37.80;;;;;;5074081;28;19928;-56
2024/02/15 02:17:23;;;;;;;;;;;22.40;37.80;;;;;;5072444;28;19925;-53
2024/02/15 02:19:51;;;;;;;;;;;22.40;37.80;;;;;;5073867;28;19931;-55
2024/02/15 02:22:18;;;;;;;;;;;22.40;37.80;;;;;;5073413;28;20274;-56
2024/02/15 02:24:58;;;;;;;;;;;22.40;37.80;;;;;;5074001;28;19931;-56
2024/02/15 02:27:27;;;;;;;;;;;22.40;37.80;;;;;;5073180;28;19928;-56
2024/02/15 02:29:55;;;;;;;;;;;22.40;37.70;;;;;;5073530;28;19924;-54
2024/02/15 02:32:22;;;;;;;;;;;22.40;37.60;;;;;;5073677;28;20006;-55
2024/02/15 02:34:49;;;;;;;;;;;22.40;37.60;;;;;;5073442;28;19924;-56
2024/02/15 02:37:16;;;;;;;;;;;22.40;37.60;;;;;;5073251;28;19925;-56
2024/02/15 02:39:43;;;;;;;;;;;22.40;37.60;;;;;;5073552;28;20431;-55
2024/02/15 02:42:10;;;;;;;;;;;22.40;37.60;;;;;;5073477;28;19931;-55
2024/02/15 02:44:38;;;;;;;;;;;22.40;37.60;;;;;;5073421;28;20342;-55
2024/02/15 02:47:05;;;;;;;;;;;22.40;37.60;;;;;;5073427;28;19970;-52
2024/02/15 02:49:32;;;;;;;;;;;22.40;37.60;;;;;;5072904;28;19983;-55
2024/02/15 02:51:59;;;;;;;;;;;22.40;37.60;;;;;;5073000;28;19925;-54
2024/02/15 02:54:29;;;;;;;;;;;22.40;37.60;;;;;;5073621;28;19934;-54
2024/02/15 02:56:56;;;;;;;;;;;22.40;37.60;;;;;;5073232;28;20292;-56
2024/02/15 02:59:22;;;;;;;;;;;22.40;37.60;;;;;;5073187;28;19931;-57
2024/02/15 03:01:49;;;;;;;;;;;22.40;38.10;;;;;;5072929;28;20394;-58
2024/02/15 03:04:17;;;;;;;;;;;22.40;37.60;;;;;;5072884;28;19924;-57
2024/02/15 03:06:44;;;;;;;;;;;22.40;37.60;;;;;;5073408;28;20356;-57
2024/02/15 03:09:14;;;;;;;;;;;22.40;37.50;;;;;;5073041;28;19929;-57
2024/02/15 03:11:40;;;;;;;;;;;22.40;37.50;;;;;;5073263;28;20023;-55
2024/02/15 03:14:07;;;;;;;;;;;22.40;37.60;;;;;;5072957;28;19968;-56
2024/02/15 03:16:35;;;;;;;;;;;22.40;37.60;;;;;;5072894;28;20019;-56
2024/02/15 03:19:05;;;;;;;;;;;22.40;37.60;;;;;;5072425;28;19935;-56
2024/02/15 03:21:31;;;;;;;;;;;22.40;37.50;;;;;;5073148;28;20328;-56
2024/02/15 03:23:58;;;;;;;;;;;22.40;37.50;;;;;;5072722;28;19924;-53
2024/02/15 03:26:30;;;;;;;;;;;22.40;37.50;;;;;;5072745;28;19950;-55
2024/02/15 03:28:57;;;;;;;;;;;22.40;37.60;;;;;;5072537;28;20447;-56
2024/02/15 03:31:24;;;;;;;;;;;22.40;37.60;;;;;;5073205;28;20328;-56
2024/02/15 03:33:51;;;;;;;;;;;22.40;37.60;;;;;;5072446;28;19974;-56
2024/02/15 03:36:20;;;;;;;;;;;22.40;37.60;;;;;;5072496;28;19978;-55
2024/02/15 03:38:47;;;;;;;;;;;22.40;37.60;;;;;;5072866;28;19924;-56
2024/02/15 03:41:14;;;;;;;;;;;22.40;37.60;;;;;;5072431;28;19928;-56
2024/02/15 03:43:41;;;;;;;;;;;22.40;37.50;;;;;;5072601;28;19925;-56
2024/02/15 03:46:12;;;;;;;;;;;22.40;37.50;;;;;;5072723;28;19931;-56
2024/02/15 03:48:39;;;;;;;;;;;22.40;37.40;;;;;;5072804;28;19963;-53
2024/02/15 03:51:07;;;;;;;;;;;22.40;37.40;;;;;;5072596;28;19946;-57
2024/02/15 03:53:34;;;;;;;;;;;22.40;37.40;;;;;;5072454;28;19935;-54
2024/02/15 03:56:01;;;;;;;;;;;22.40;37.40;;;;;;5073002;28;19928;-56
2024/02/15 03:58:28;;;;;;;;;;;22.40;37.40;;;;;;5072572;28;20407;-53
2024/02/15 04:00:56;;;;;;;;;;;22.40;37.40;;;;;;5072726;28;19978;-54
2024/02/15 04:03:23;;;;;;;;;;;22.40;37.40;;;;;;5076148;28;19924;-56
2024/02/15 04:05:50;;;;;;;;;;;22.40;37.40;;;;;;5076386;28;19975;-56
2024/02/15 04:08:18;;;;;;;;;;;22.40;37.40;;;;;;5075913;28;19925;-55
2024/02/15 04:10:45;;;;;;;;;;;22.40;37.40;;;;;;5076236;28;20019;-56
2024/02/15 04:13:15;;;;;;;;;;;22.40;37.40;;;;;;5075969;28;19924;-56
2024/02/15 04:15:43;;;;;;;;;;;22.40;37.40;;;;;;5074982;28;20018;-56
2024/02/15 04:18:12;;;;;;;;;;;22.40;37.40;;;;;;5076010;28;19932;-56
2024/02/15 04:20:44;;;;;;;;;;;22.40;37.40;;;;;;5076025;28;19967;-56
2024/02/15 04:23:12;;;;;;;;;;;22.40;37.40;;;;;;5076113;28;19935;-56
2024/02/15 04:25:40;;;;;;;;;;;22.40;37.40;;;;;;5076096;28;20358;-56
2024/02/15 04:28:08;;;;;;;;;;;22.40;37.40;;;;;;5075892;28;19946;-56
2024/02/15 04:30:38;;;;;;;;;;;22.40;37.40;;;;;;5075930;28;19924;-56
2024/02/15 04:33:05;;;;;;;;;;;22.40;37.40;;;;;;5094175;28;19924;-56
2024/02/15 04:35:32;;;;;;;;;;;22.40;37.40;;;;;;5096008;28;20022;-56
2024/02/15 04:37:59;;;;;;;;;;;22.40;37.40;;;;;;5093353;28;20281;-56
2024/02/15 04:40:26;;;;;;;;;;;22.40;37.10;;;;;;5074971;28;19932;-56
2024/02/15 04:42:53;;;;;;;;;;;22.40;36.80;;;;;;5075140;28;19978;-55
2024/02/15 04:45:22;;;;;;;;;;;22.40;36.60;;;;;;5075436;28;20018;-56
2024/02/15 04:47:52;;;;;;;;;;;22.40;36.40;;;;;;5075180;28;19924;-56
2024/02/15 04:50:20;;;;;;;;;;;22.40;36.20;;;;;;5074324;28;20022;-55
2024/02/15 04:52:49;;;;;;;;;;;22.40;36.00;;;;;;5075312;28;20015;-55
2024/02/15 04:55:17;;;;;;;;;;;22.50;35.90;;;;;;5074643;28;19987;-53
2024/02/15 04:57:47;;;;;;;;;;;22.50;35.90;;;;;;5075222;28;20344;-55
2024/02/15 05:00:15;;;;;;;;;;;22.50;35.80;;;;;;5068965;28;20266;-55
2024/02/15 05:02:44;;;;;;;;;;;22.50;35.70;;;;;;5074346;28;19928;-57
2024/02/15 05:05:12;;;;;;;;;;;22.50;35.60;;;;;;5075593;28;19928;-58
2024/02/15 05:07:41;;;;;;;;;;;22.50;35.50;;;;;;5075204;28;19924;-57
2024/02/15 05:10:09;;;;;;;;;;;22.50;35.40;;;;;;5075240;28;19929;-57
2024/02/15 05:12:40;;;;;;;;;;;22.50;35.30;;;;;;5074719;28;19925;-56
2024/02/15 05:15:10;;;;;;;;;;;22.50;35.20;;;;;;5078645;28;20358;-57
2024/02/15 05:17:40;;;;;;;;;;;22.50;35.20;;;;;;5071677;28;20393;-56
2024/02/15 05:20:11;;;;;;;;;;;22.50;35.10;;;;;;5064539;28;19925;-57
2024/02/15 05:22:38;;;;;;;;;;;22.50;35.10;;;;;;5073222;28;19924;-56
2024/02/15 05:25:07;;;;;;;;;;;22.60;35.10;;;;;;5072341;28;20309;-57
2024/02/15 05:27:36;;;;;;;;;;;22.50;34.90;;;;;;5070466;28;19971;-56
2024/02/15 05:30:06;;;;;;;;;;;22.60;34.90;;;;;;5054511;28;20405;-54
2024/02/15 05:32:41;;;;;;;;;;;22.60;34.80;;;;;;5054371;28;19924;-56
2024/02/15 05:35:11;;;;;;;;;;;22.60;34.80;;;;;;5074523;28;19931;-55
2024/02/15 05:37:38;;;;;;;;;;;22.60;34.70;;;;;;5074017;28;19924;-54
2024/02/15 05:40:06;;;;;;;;;;;22.60;34.70;;;;;;5074650;28;20370;-55
2024/02/15 05:42:33;;;;;;;;;;;22.60;34.70;;;;;;5074325;28;19928;-54
2024/02/15 05:45:17;;;;;;;;;;;22.60;34.60;;;;;;5074218;28;20377;-56
2024/02/15 05:47:44;;;;;;;;;;;22.60;34.70;;;;;;5073012;28;19982;-56
2024/02/15 05:50:11;;;;;;;;;;;22.60;34.60;;;;;;5073152;28;19968;-56
2024/02/15 05:52:40;;;;;;;;;;;22.60;34.50;;;;;;5074208;28;19925;-54
2024/02/15 05:55:07;;;;;;;;;;;22.60;34.50;;;;;;5067522;28;19931;-55
2024/02/15 05:57:34;;;;;;;;;;;22.60;34.50;;;;;;5074018;28;19928;-55
2024/02/15 06:00:02;;;;;;;;;;;22.60;34.60;;;;;;5072774;28;19924;-55
2024/02/15 06:02:43;;;;;;;;;;;22.60;34.50;;;;;;5073634;28;19931;-54
2024/02/15 06:05:10;;;;;;;;;;;22.60;35.10;;;;;;5072143;28;19924;-56
2024/02/15 06:07:37;;;;;;;;;;;22.60;34.50;;;;;;5073613;28;19936;-57
2024/02/15 06:10:07;;;;;;;;;;;22.60;34.50;;;;;;5071225;28;19925;-56
2024/02/15 06:12:34;;;;;;;;;;;22.60;34.50;;;;;;5071449;28;19993;-57
2024/02/15 06:15:05;;;;;;;;;;;22.60;34.40;;;;;;5070578;28;19932;-48
2024/02/15 06:17:32;;;;;;;;;;;22.60;34.30;;;;;;5063830;28;19933;-51
2024/02/15 06:19:59;;;;;;;;;;;22.60;34.40;;;;;;5070256;28;19965;-52
2024/02/15 06:22:26;;;;;;;;;;;22.60;34.50;;;;;;5064370;28;20359;-55
2024/02/15 06:24:53;;;;;;;;;;;22.60;34.50;;;;;;5069000;28;19935;-53
2024/02/15 06:27:20;;;;;;;;;;;22.70;34.40;;;;;;5068044;28;20378;-50
2024/02/15 06:40:55;;;;;;;;;;;22.90;33.90;;;;;;5059646;28;20010;-53
2024/02/15 06:43:22;;;;;;;;;;;22.90;34.00;;;;;;5063078;28;20035;-51
2024/02/15 06:45:51;;;;;;;;;;;22.90;34.00;;;;;;5060002;28;19932;-56
2024/02/15 06:48:18;;;;;;;;;;;22.90;33.80;;;;;;5059687;28;19935;-57
2024/02/15 06:50:47;;;;;;;;;;;22.90;33.80;;;;;;5061342;28;19928;-54
2024/02/15 06:53:14;;;;;;;;;;;23.00;33.70;;;;;;5061753;28;20401;-53
2024/02/15 06:55:42;;;;;;;;;;;23.00;33.60;;;;;;5062309;28;19932;-51
2024/02/15 06:58:09;;;;;;;;;;;23.00;33.50;;;;;;5059462;28;19970;-55
2024/02/15 07:00:39;;;;;;;;;;;23.00;33.40;;;;;;5057896;28;20013;-57
2024/02/15 07:03:07;;;;;;;;;;;23.00;33.30;;;;;;5060227;28;19928;-57
2024/02/15 07:05:35;;;;;;;;;;;23.10;33.30;;;;;;5062545;28;19940;-59
2024/02/15 07:08:02;;;;;;;;;;;23.10;33.40;;;;;;5058503;28;19939;-60
2024/02/15 07:10:30;;;;;;;;;;;23.10;33.60;;;;;;5062193;28;19929;-58
2024/02/15 07:12:57;;;;;;;;;;;23.10;33.80;;;;;;5068163;28;20303;-60
2024/02/15 07:15:24;;;;;;;;;;;23.10;33.90;;;;;;5068709;28;20027;-59
2024/02/15 07:17:54;;;;;;;;;;;23.20;33.90;;;;;;5057294;28;20012;-59
2024/02/15 07:20:23;;;;;;;;;;;23.20;33.80;;;;;;5063888;28;19964;-58
2024/02/15 07:22:50;;;;;;;;;;;23.20;34.10;;;;;;5059072;28;19932;-59
2024/02/15 07:25:18;;;;;;;;;;;23.20;33.40;;;;;;5061851;28;19974;-62
2024/02/15 07:27:45;;;;;;;;;;;23.30;33.50;;;;;;5062690;28;19964;-59
2024/02/15 07:30:13;;;;;;;;;;;23.30;33.40;;;;;;5060536;28;19967;-59
2024/02/15 07:32:40;;;;;;;;;;;23.30;33.40;;;;;;5063551;28;19935;-59
2024/02/15 07:35:07;;;;;;;;;;;23.40;34.00;;;;;;5066187;28;20063;-59
2024/02/15 07:37:35;;;;;;;;;;;23.40;34.10;;;;;;5071984;28;19932;-60
2024/02/15 07:40:03;;;;;;;;;;;23.40;34.20;;;;;;5072437;28;19924;-61
2024/02/15 07:42:30;;;;;;;;;;;23.50;34.10;;;;;;5070632;28;19995;-60
2024/02/15 07:44:58;;;;;;;;;;;23.50;34.10;;;;;;5068725;28;19924;-59
2024/02/15 07:47:26;;;;;;;;;;;23.60;34.00;;;;;;5068247;28;19929;-58
2024/02/15 07:49:55;;;;;;;;;;;23.60;33.90;;;;;;5092260;27;19958;-59
2024/02/15 07:52:22;;;;;;;;;;;23.60;33.80;;;;;;5064160;28;19932;-59
2024/02/15 07:54:49;;;;;;;;;;;23.70;33.70;;;;;;5067486;28;20026;-56
2024/02/15 07:57:16;;;;;;;;;;;23.70;33.50;;;;;;5071642;28;19986;-60
2024/02/15 07:59:44;;;;;;;;;;;23.70;33.40;;;;;;5068383;28;19929;-57
2024/02/15 08:02:12;;;;;;;;;;;23.80;33.50;;;;;;5071630;28;19924;-58
2024/02/15 08:04:41;;;;;;;;;;;23.80;33.50;;;;;;5069619;28;19925;-58
2024/02/15 08:07:10;;;;;;;;;;;23.90;33.50;;;;;;5068350;28;19924;-59
2024/02/15 08:09:37;;;;;;;;;;;23.90;33.50;;;;;;5071087;28;19936;-60
2024/02/15 08:12:08;;;;;;;;;;;23.90;33.50;;;;;;5068422;28;19924;-59
2024/02/15 08:14:35;;;;;;;;;;;24.00;33.60;;;;;;5068515;28;19925;-58
2024/02/15 08:17:03;;;;;;;;;;;24.00;33.40;;;;;;5069886;28;19975;-60
2024/02/15 08:19:30;;;;;;;;;;;24.10;33.50;;;;;;5069176;28;20397;-59
2024/02/15 08:21:57;;;;;;;;;;;24.10;33.50;;;;;;5064063;28;20419;-60
2024/02/15 08:24:24;;;;;;;;;;;24.10;33.40;;;;;;5068999;28;19951;-59
2024/02/15 08:26:52;;;;;;;;;;;24.20;33.60;;;;;;5065056;28;19939;-62
2024/02/15 08:29:20;;;;;;;;;;;24.30;33.60;;;;;;5066519;28;19993;-61
2024/02/15 08:31:48;;;;;;;;;;;24.30;33.70;;;;;;5066002;28;20011;-61
2024/02/15 08:34:18;;;;;;;;;;;24.30;33.70;;;;;;5066869;28;20378;-60
2024/02/15 08:36:47;;;;;;;;;;;24.40;33.50;;;;;;5069846;28;19971;-59
2024/02/15 08:39:16;;;;;;;;;;;24.40;33.50;;;;;;5069495;28;20464;-60
2024/02/15 08:41:43;;;;;;;;;;;24.50;33.50;;;;;;5072160;28;20036;-62
2024/02/15 08:44:15;;;;;;;;;;;24.50;33.50;;;;;;5066933;28;20374;-64
2024/02/15 08:46:42;;;;;;;;;;;24.50;33.30;;;;;;5068678;28;19937;-59
2024/02/15 08:49:12;;;;;;;;;;;24.60;33.40;;;;;;5067041;28;20064;-57
2024/02/15 08:51:39;;;;;;;;;;;24.60;33.20;;;;;;5067241;28;19939;-61
2024/02/15 08:54:06;;;;;;;;;;;24.60;33.20;;;;;;5065106;28;20138;-57
2024/02/15 08:56:35;;;;;;;;;;;24.70;33.10;;;;;;5068477;28;19997;-57
2024/02/15 08:59:02;;;;;;;;;;;24.70;33.40;;;;;;5066725;28;19925;-53
2024/02/15 09:01:30;;;;;;;;;;;24.70;32.90;;;;;;5063617;28;20386;-53
2024/02/15 09:03:58;;;;;;;;;;;24.80;33.00;;;;;;5062107;28;19924;-61
2024/02/15 09:06:25;;;;;;;;;;;24.80;33.00;;;;;;5068473;28;20590;-61
2024/02/15 09:08:53;;;;;;;;;;;24.80;32.90;;;;;;5070452;28;19956;-59
2024/02/15 09:11:20;;;;;;;;;;;24.90;32.90;;;;;;5066032;28;19944;-62
2024/02/15 09:13:49;;;;;;;;;;;24.90;32.80;;;;;;5065996;28;20287;-59
2024/02/15 09:16:16;;;;;;;;;;;24.90;32.70;;;;;;5065018;28;19974;-60
2024/02/15 09:18:45;;;;;;;;;;;25.00;32.80;;;;;;5062245;28;19932;-63
2024/02/15 09:21:14;;;;;;;;;;;25.00;32.70;;;;;;5064830;28;19936;-60
2024/02/15 09:23:41;;;;;;;;;;;25.10;32.60;;;;;;5061351;28;19936;-61
2024/02/15 09:26:09;;;;;;;;;;;25.10;32.30;;;;;;5061307;28;19972;-60
2024/02/15 09:28:37;;;;;;;;;;;25.10;32.40;;;;;;5063957;28;19984;-59
2024/02/15 09:31:04;;;;;;;;;;;25.20;32.50;;;;;;5067905;28;20390;-59
2024/02/15 09:33:31;;;;;;;;;;;25.20;32.50;;;;;;5068138;28;19931;-60
2024/02/15 09:35:58;;;;;;;;;;;25.30;32.40;;;;;;5064881;28;19924;-61
2024/02/15 09:38:25;;;;;;;;;;;25.30;32.30;;;;;;5068829;28;20306;-61
2024/02/15 09:40:52;;;;;;;;;;;25.30;32.20;;;;;;5069541;28;19928;-60
2024/02/15 09:43:19;;;;;;;;;;;25.40;31.80;;;;;;5075219;28;19943;-60
2024/02/15 09:45:47;;;;;;;;;;;25.40;31.60;;;;;;5078143;28;19932;-60
2024/02/15 09:48:17;;;;;;;;;;;25.40;31.50;;;;;;5067943;28;19934;-60
2024/02/15 09:50:48;;;;;;;;;;;25.40;31.60;;;;;;5069571;28;19924;-59
2024/02/15 09:53:15;;;;;;;;;;;25.40;31.80;;;;;;5062540;28;19929;-59
2024/02/15 09:55:42;;;;;;;;;;;25.50;31.50;;;;;;5066859;28;19928;-58
2024/02/15 09:58:12;;;;;;;;;;;25.50;31.40;;;;;;5069935;28;19931;-59
2024/02/15 10:00:39;;;;;;;;;;;25.60;31.40;;;;;;5063760;28;19932;-59
2024/02/15 10:03:06;;;;;;;;;;;25.60;31.50;;;;;;5066469;28;19929;-54
2024/02/15 10:05:35;;;;;;;;;;;25.70;31.60;;;;;;5067254;28;19938;-55
2024/02/15 10:08:03;;;;;;;;;;;25.70;31.50;;;;;;5067142;28;20451;-58
2024/02/15 10:10:30;;;;;;;;;;;25.70;31.20;;;;;;5067404;28;20385;-59
2024/02/15 10:13:00;;;;;;;;;;;25.80;31.40;;;;;;5065476;28;20495;-56
2024/02/15 10:15:31;;;;;;;;;;;25.80;31.50;;;;;;5076162;28;20015;-57
2024/02/15 10:18:01;;;;;;;;;;;25.80;31.50;;;;;;5070285;28;19928;-60
2024/02/15 10:20:28;;;;;;;;;;;25.80;31.50;;;;;;5075183;28;19928;-59
2024/02/15 10:23:17;;;;;;;;;;;25.90;31.50;;;;;;5063895;28;19942;-60
2024/02/15 10:25:46;;;;;;;;;;;25.90;31.30;;;;;;5070468;28;19932;-58
2024/02/15 10:28:15;;;;;;;;;;;25.90;31.20;;;;;;5073589;28;19955;-58
2024/02/15 10:30:44;;;;;;;;;;;26.00;31.30;;;;;;5072801;28;19931;-58
2024/02/15 10:33:23;;;;;;;;;;;26.00;31.50;;;;;;5070416;28;19936;-59
2024/02/15 10:36:04;;;;;;;;;;;26.00;30.60;;;;;;5073244;28;20362;-60
2024/02/15 10:38:31;;;;;;;;;;;26.00;30.20;;;;;;5076698;28;19966;-62
2024/02/15 10:41:04;;;;;;;;;;;26.00;30.90;;;;;;5070749;28;19928;-62
2024/02/15 10:43:34;;;;;;;;;;;25.90;31.00;;;;;;5065013;28;19983;-61
2024/02/15 10:46:02;;;;;;;;;;;25.90;30.90;;;;;;5066448;28;20007;-62
2024/02/15 10:48:29;;;;;;;;;;;25.90;31.00;;;;;;5063938;28;19932;-64
2024/02/15 10:50:59;;;;;;;;;;;25.90;31.00;;;;;;5067515;28;19978;-60
2024/02/15 10:53:27;;;;;;;;;;;25.90;31.10;;;;;;5066397;28;19979;-62
2024/02/15 10:56:14;;;;;;;;;;;25.90;31.10;;;;;;5058867;28;19929;-59
2024/02/15 10:58:47;;;;;;;;;;;25.90;31.10;;;;;;5065967;28;20377;-60
2024/02/15 11:01:17;;;;;;;;;;;25.90;30.80;;;;;;5066460;28;20019;-63
2024/02/15 11:03:51;;;;;;;;;;;25.90;30.70;;;;;;5069264;28;19936;-62
2024/02/15 11:06:20;;;;;;;;;;;26.00;30.80;;;;;;5064622;28;20329;-62
2024/02/15 11:08:48;;;;;;;;;;;26.00;30.80;;;;;;5062552;28;20399;-62
2024/02/15 11:11:15;;;;;;;;;;;26.00;30.70;;;;;;5063915;28;20578;-63
2024/02/15 11:13:45;;;;;;;;;;;26.00;31.20;;;;;;5071542;28;19991;-62
2024/02/15 11:16:34;;;;;;;;;;;26.00;30.40;;;;;;5063700;28;19935;-59
2024/02/15 11:19:01;;;;;;;;;;;26.00;30.40;;;;;;5064268;28;19978;-62
2024/02/15 11:21:50;;;;;;;;;;;26.00;30.40;;;;;;5068422;28;20204;-62
2024/02/15 11:24:27;;;;;;;;;;;26.00;30.40;;;;;;5067027;28;19938;-61
2024/02/15 11:26:58;;;;;;;;;;;26.00;30.50;;;;;;5070328;28;20370;-61
2024/02/15 11:29:45;;;;;;;;;;;26.00;30.40;;;;;;5063544;28;19924;-61
2024/02/15 11:32:32;;;;;;;;;;;26.00;30.30;;;;;;5065977;28;19932;-61
2024/02/15 11:35:10;;;;;;;;;;;26.10;30.30;;;;;;5068216;28;19932;-61
2024/02/15 11:37:55;;;;;;;;;;;26.10;30.50;;;;;;5065522;28;19924;-62
2024/02/15 11:40:24;;;;;;;;;;;26.10;30.50;;;;;;5067653;28;19932;-62
2024/02/15 11:42:53;;;;;;;;;;;26.10;30.30;;;;;;5068270;28;19970;-62
2024/02/15 11:45:20;;;;;;;;;;;26.10;30.20;;;;;;5067820;28;19959;-62
2024/02/15 11:47:50;;;;;;;;;;;26.10;30.30;;;;;;5066255;28;19933;-62
2024/02/15 11:50:18;;;;;;;;;;;26.10;30.40;;;;;;5065946;28;19935;-63
2024/02/15 11:52:47;;;;;;;;;;;26.10;30.30;;;;;;5067129;28;20274;-62
2024/02/15 11:55:19;;;;;;;;;;;26.10;30.40;;;;;;5069475;28;20385;-63
2024/02/15 11:58:02;;;;;;;;;;;26.10;30.60;;;;;;5066698;28;19932;-62
2024/02/15 12:20:07;;;;;;;;;;;26.20;30.30;;;;;;5065831;28;19968;-62
2024/02/15 12:22:46;;;;;;;;;;;26.20;30.30;;;;;;5062012;28;19970;-63
2024/02/15 12:25:14;;;;;;;;;;;26.20;30.30;;;;;;5068349;28;19924;-63
2024/02/15 12:27:43;;;;;;;;;;;26.20;30.00;;;;;;5070258;28;19924;-62
2024/02/15 12:30:15;;;;;;;;;;;26.30;30.10;;;;;;5072131;28;19931;-62
2024/02/15 12:32:42;;;;;;;;;;;26.30;30.00;;;;;;5066855;28;21048;-62
2024/02/15 12:35:16;;;;;;;;;;;26.30;30.00;;;;;;5067386;28;19924;-62
2024/02/15 12:37:44;;;;;;;;;;;26.30;30.00;;;;;;5066901;28;19924;-62
2024/02/15 12:40:16;;;;;;;;;;;26.30;30.00;;;;;;5067171;28;20336;-63
2024/02/15 12:42:47;;;;;;;;;;;26.40;30.10;;;;;;5067490;28;19944;-63
2024/02/15 12:45:20;;;;;;;;;;;26.40;30.40;;;;;;5095561;27;20016;-62
2024/02/15 12:47:51;;;;;;;;;;;26.40;30.00;;;;;;5065695;28;19936;-63
2024/02/15 12:50:21;;;;;;;;;;;26.40;30.00;;;;;;5063996;28;19983;-62
2024/02/15 12:52:49;;;;;;;;;;;26.40;29.90;;;;;;5066157;28;20416;-61
2024/02/15 12:55:24;;;;;;;;;;;26.40;30.00;;;;;;5066913;28;19936;-60
2024/02/15 12:57:52;;;;;;;;;;;26.40;30.10;;;;;;5070180;28;19939;-61
2024/02/15 13:00:28;;;;;;;;;;;26.40;29.90;;;;;;5065476;28;20270;-60
2024/02/15 13:02:56;;;;;;;;;;;26.30;29.70;;;;;;5069438;28;20358;-63
2024/02/15 13:05:24;;;;;;;;;;;26.30;29.70;;;;;;5067508;28;20024;-61
2024/02/15 13:07:52;;;;;;;;;;;26.30;29.70;;;;;;5065385;28;20300;-58
2024/02/15 13:10:22;;;;;;;;;;;26.20;29.70;;;;;;5069046;28;19947;-61
2024/02/15 13:12:50;;;;;;;;;;;26.20;29.70;;;;;;5067367;28;20020;-60
2024/02/15 13:15:19;;;;;;;;;;;26.20;29.90;;;;;;5069867;28;19933;-60
2024/02/15 13:17:53;;;;;;;;;;;26.10;29.90;;;;;;5070163;28;20377;-60
2024/02/15 13:20:30;;;;;;;;;;;26.10;30.00;;;;;;5071495;28;20435;-60
2024/02/15 13:23:00;;;;;;;;;;;26.10;29.80;;;;;;5066106;28;19924;-62
2024/02/15 13:25:27;;;;;;;;;;;26.10;29.90;;;;;;5071003;28;20470;-61
2024/02/15 13:27:54;;;;;;;;;;;26.10;29.80;;;;;;5065898;28;19951;-60
2024/02/15 13:30:23;;;;;;;;;;;26.10;29.80;;;;;;5067020;28;19924;-61
2024/02/15 13:32:50;;;;;;;;;;;26.10;29.70;;;;;;5071819;28;20416;-60
2024/02/15 13:35:20;;;;;;;;;;;26.10;30.20;;;;;;5075406;28;20343;-57
2024/02/15 13:37:47;;;;;;;;;;;26.00;29.70;;;;;;5070611;28;19977;-62
2024/02/15 13:40:17;;;;;;;;;;;26.00;29.70;;;;;;5067980;28;19924;-63
2024/02/15 13:42:49;;;;;;;;;;;26.00;29.80;;;;;;5062582;28;19978;-63
2024/02/15 13:45:16;;;;;;;;;;;26.00;29.80;;;;;;5075173;28;19983;-63
2024/02/15 13:47:45;;;;;;;;;;;26.00;29.80;;;;;;5072237;28;19931;-65
2024/02/15 13:50:16;;;;;;;;;;;26.10;29.80;;;;;;5072595;28;20445;-62
2024/02/15 13:52:44;;;;;;;;;;;26.10;29.80;;;;;;5069301;28;19929;-62
2024/02/15 13:55:11;;;;;;;;;;;26.10;30.00;;;;;;5071482;28;19925;-62
2024/02/15 13:57:39;;;;;;;;;;;26.10;29.80;;;;;;5071757;28;20352;-62
2024/02/15 14:00:12;;;;;;;;;;;26.10;29.80;;;;;;5071327;28;19967;-62
2024/02/15 14:02:41;;;;;;;;;;;26.10;29.70;;;;;;5067595;28;19942;-65
2024/02/15 14:05:09;;;;;;;;;;;26.10;30.20;;;;;;5076589;28;19975;-63
2024/02/15 14:07:36;;;;;;;;;;;26.10;29.70;;;;;;5066794;28;19978;-62
2024/02/15 14:10:03;;;;;;;;;;;26.10;29.70;;;;;;5065956;28;20373;-63
2024/02/15 14:12:30;;;;;;;;;;;26.10;29.80;;;;;;5063825;28;19933;-63
2024/02/15 14:14:57;;;;;;;;;;;26.10;29.80;;;;;;5069104;28;19940;-61
2024/02/15 14:17:24;;;;;;;;;;;26.10;29.80;;;;;;5068058;28;19978;-61
2024/02/15 14:19:51;;;;;;;;;;;26.10;30.00;;;;;;5064315;28;20019;-62
2024/02/15 14:22:18;;;;;;;;;;;26.10;29.90;;;;;;5068655;28;19956;-60
2024/02/15 14:24:45;;;;;;;;;;;26.00;29.90;;;;;;5065164;28;19932;-62
2024/02/15 14:27:14;;;;;;;;;;;26.00;29.90;;;;;;5065529;28;20326;-61
2024/02/15 14:32:59;;;;;;;;;;;25.90;30.00;;;;;;5064977;28;20443;-59
2024/02/15 14:35:16;;;;;;;;;;;25.90;30.60;;;;;;5069290;28;19928;-61
2024/02/15 14:37:43;;;;;;;;;;;25.90;30.50;;;;;;5066064;28;20376;-61
2024/02/15 14:40:14;;;;;;;;;;;25.90;30.70;;;;;;5074515;28;19924;-66
2024/02/15 14:42:44;;;;;;;;;;;25.90;30.80;;;;;;5065251;28;19928;-63
2024/02/15 14:45:22;;;;;;;;;;;25.90;30.90;;;;;;5063544;28;19929;-63
2024/02/15 14:47:49;;;;;;;;;;;25.90;30.70;;;;;;5068995;28;19931;-63
2024/02/15 14:50:17;;;;;;;;;;;25.90;30.70;;;;;;5069145;28;20015;-60
2024/02/15 14:52:44;;;;;;;;;;;25.90;30.50;;;;;;5068719;28;19933;-63
2024/02/15 14:55:11;;;;;;;;;;;25.90;30.60;;;;;;5070231;28;19930;-63
2024/02/15 14:57:38;;;;;;;;;;;25.90;30.70;;;;;;5070088;28;20011;-64
2024/02/15 15:00:10;;;;;;;;;;;25.80;30.70;;;;;;5069679;28;19932;-64